Terminal Aerodrome Forecast
Issued by NWS Duluth, MN

Home | Current Version | Previous Version | Text Only | Print | Product List | Glossary On
Versions: 1 2 3 4 5 6 7 8 9 10 11 12 13 14 15 16 17 18
000
FTUS43 KDLH 172320
TAFDLH
TAF
KDLH 172320Z 1800/1824 21006KT P6SM SKC
     FM180400 22007KT P6SM SKC WS020/22040KT
     FM181500 22011G21KT P6SM SCT250
     FM182000 26013G23KT P6SM SCT250=

USA.gov is the U.S. government's official web portal to all federal, state and local government web resources and services.